Center Line, Michigan
Current Conditions -  °F | °C
As of 2:53 PM on Wednesday 28 Jan 2015 (Local Time) from KDET Reporting Station
Clear Clear  
Wind Chill: 19°   Ceiling: Unl
Heat Index: 28°   Visibility: 10mi
Dew Point: 13°   Wind: 9mph
Humidity: 53%   Direction: 200°SSW
Pressure: 30.29"   Gusts: NA
Location:  42.48°N, 83.03°W
Report Text: KDET 281953Z 20008KT 10SM CLR M02/M11 A3029 RMK AO2 SLP265 T10221106
Loading
Personal Weather Stations






























Interactive Weather Map New forecast layout! Learn more

10-Day Weather Forecast

Advertisements
Track Severe Weather on mobile